createdAt,value
2022-11-30T00:00:20.838Z,78.14
2022-11-30T00:02:47.780Z,77.98
2022-11-30T00:05:14.447Z,78.19
2022-11-30T00:07:41.215Z,78.38
2022-11-30T00:10:08.368Z,78.06
2022-11-30T00:12:34.983Z,77.87
2022-11-30T00:15:01.486Z,78.33
2022-11-30T00:17:28.158Z,78.10
2022-11-30T00:19:54.702Z,78.35
2022-11-30T00:22:21.289Z,78.46
2022-11-30T00:24:48.114Z,78.40
2022-11-30T00:27:14.826Z,78.38
2022-11-30T00:29:41.731Z,78.73
2022-11-30T00:32:08.274Z,78.32
2022-11-30T00:34:34.827Z,78.18
2022-11-30T00:37:01.454Z,78.02
2022-11-30T00:39:33.910Z,77.98
2022-11-30T00:42:01.971Z,78.26
2022-11-30T00:44:28.545Z,78.44
2022-11-30T00:46:55.018Z,79.06
2022-11-30T00:49:21.507Z,78.90
2022-11-30T00:51:48.006Z,78.81
2022-11-30T00:54:14.543Z,78.97
2022-11-30T00:56:41.338Z,79.24
2022-11-30T00:59:07.911Z,78.88
2022-11-30T01:01:35.788Z,78.95
2022-11-30T01:04:02.829Z,78.44
2022-11-30T01:06:29.371Z,78.93
2022-11-30T01:08:55.908Z,78.53
2022-11-30T01:11:26.505Z,78.45
2022-11-30T01:13:53.378Z,78.63
2022-11-30T01:16:21.600Z,78.73
2022-11-30T01:21:16.496Z,78.85
2022-11-30T01:23:43.148Z,78.32
2022-11-30T01:26:09.716Z,78.40
2022-11-30T01:28:36.645Z,78.27
2022-11-30T01:31:04.438Z,78.34
2022-11-30T01:33:30.976Z,78.26
2022-11-30T01:36:03.973Z,77.95
2022-11-30T01:38:34.392Z,77.99
2022-11-30T01:41:01.362Z,78.19
2022-11-30T01:43:41.414Z,78.36
2022-11-30T01:46:21.439Z,78.54
2022-11-30T01:48:49.036Z,78.31
2022-11-30T01:51:15.552Z,78.11
2022-11-30T01:53:43.118Z,78.15
2022-11-30T01:56:09.639Z,77.99
2022-11-30T01:58:36.732Z,78.14
2022-11-30T02:01:04.063Z,78.17
2022-11-30T02:03:41.625Z,78.67
2022-11-30T02:06:08.396Z,78.69
2022-11-30T02:08:35.559Z,78.47
2022-11-30T02:11:06.296Z,78.39
2022-11-30T02:13:52.804Z,78.22
2022-11-30T02:16:25.484Z,78.34
2022-11-30T02:19:10.941Z,78.71
2022-11-30T02:21:57.736Z,78.67
2022-11-30T02:24:43.355Z,78.55
2022-11-30T02:27:24.185Z,78.15
2022-11-30T02:29:55.308Z,78.46
2022-11-30T02:32:23.448Z,78.39
2022-11-30T02:34:50.046Z,78.30
2022-11-30T02:37:17.282Z,78.05
2022-11-30T02:39:43.995Z,78.46
2022-11-30T02:42:12.584Z,78.09
2022-11-30T02:44:43.677Z,78.05
2022-11-30T02:47:10.881Z,78.30
2022-11-30T02:49:37.344Z,78.17
2022-11-30T02:52:03.950Z,78.22
2022-11-30T02:54:30.532Z,78.34
2022-11-30T02:56:57.776Z,78.68
2022-11-30T02:59:24.285Z,78.50
2022-11-30T03:01:50.997Z,78.33
2022-11-30T03:04:17.553Z,78.59
2022-11-30T03:06:44.042Z,78.51
2022-11-30T03:09:11.037Z,78.66
2022-11-30T03:11:37.548Z,78.38
2022-11-30T03:14:04.135Z,78.19
2022-11-30T03:16:30.792Z,78.24
2022-11-30T03:18:58.219Z,78.61
2022-11-30T03:21:24.858Z,78.38
2022-11-30T03:23:51.365Z,78.26
2022-11-30T03:26:17.959Z,78.19
2022-11-30T03:28:44.501Z,77.71
2022-11-30T03:31:13.111Z,77.61
2022-11-30T03:33:43.382Z,78.21
2022-11-30T03:36:10.791Z,77.92
2022-11-30T03:38:37.657Z,78.06
2022-11-30T03:41:05.233Z,78.08
2022-11-30T03:43:32.182Z,77.99
2022-11-30T03:45:58.833Z,78.01
2022-11-30T03:48:25.548Z,78.27
2022-11-30T03:50:52.435Z,78.29
2022-11-30T03:53:19.941Z,78.21
2022-11-30T03:55:46.660Z,78.32
2022-11-30T03:58:13.208Z,78.29
2022-11-30T04:00:39.747Z,78.18
2022-11-30T04:03:06.429Z,78.10
2022-11-30T04:05:33.017Z,78.52
2022-11-30T04:07:59.944Z,78.53
2022-11-30T04:10:26.671Z,78.26
2022-11-30T04:12:53.179Z,78.31
2022-11-30T04:15:19.689Z,78.32
2022-11-30T04:17:46.231Z,78.63
2022-11-30T04:20:12.954Z,78.24
2022-11-30T04:22:43.568Z,78.34
2022-11-30T04:25:10.093Z,78.56
2022-11-30T04:27:36.587Z,78.08
2022-11-30T04:30:03.210Z,78.45
2022-11-30T04:32:29.741Z,78.48
2022-11-30T04:34:56.278Z,78.17
2022-11-30T04:37:22.855Z,78.10
2022-11-30T04:39:49.336Z,77.85
2022-11-30T04:42:15.928Z,77.71
2022-11-30T04:44:42.600Z,78.01
2022-11-30T04:47:09.103Z,78.23
2022-11-30T04:49:35.578Z,78.12
2022-11-30T04:52:02.192Z,78.49
2022-11-30T04:54:28.792Z,77.70
2022-11-30T04:56:56.000Z,77.81
2022-11-30T04:59:22.550Z,77.83
2022-11-30T05:01:49.140Z,77.69
2022-11-30T05:04:15.779Z,77.88
2022-11-30T05:06:42.395Z,77.88
2022-11-30T05:09:08.912Z,78.06
2022-11-30T05:11:35.489Z,77.74
2022-11-30T05:14:02.254Z,77.98
2022-11-30T05:16:28.902Z,77.64
2022-11-30T05:18:55.542Z,78.15
2022-11-30T05:21:22.575Z,78.41
2022-11-30T05:23:49.053Z,78.56
2022-11-30T05:26:15.811Z,78.41
2022-11-30T05:28:42.718Z,78.39
2022-11-30T05:31:09.314Z,78.69
2022-11-30T05:33:35.915Z,78.14
2022-11-30T05:36:08.829Z,78.00
2022-11-30T05:38:37.318Z,77.93
2022-11-30T05:41:03.829Z,77.79
2022-11-30T05:43:30.415Z,78.20
2022-11-30T05:46:00.981Z,78.35
2022-11-30T05:48:28.125Z,78.03
2022-11-30T05:50:55.248Z,77.94
2022-11-30T05:53:21.797Z,77.81
2022-11-30T05:55:48.358Z,78.26
2022-11-30T05:58:14.902Z,78.47
2022-11-30T06:00:41.557Z,78.50
2022-11-30T06:03:08.205Z,78.62
2022-11-30T06:05:35.383Z,78.55
2022-11-30T06:08:02.427Z,78.27
2022-11-30T06:10:29.136Z,78.37
2022-11-30T06:12:56.120Z,78.46
2022-11-30T06:15:22.714Z,78.13
2022-11-30T06:17:49.267Z,77.95
2022-11-30T06:20:16.242Z,77.81
2022-11-30T06:22:44.717Z,78.22
2022-11-30T06:25:11.236Z,78.26
2022-11-30T06:27:37.824Z,78.59
2022-11-30T06:30:04.670Z,78.51
2022-11-30T06:32:31.186Z,78.40
2022-11-30T06:34:57.793Z,78.12
2022-11-30T06:37:25.024Z,78.57
2022-11-30T06:40:05.956Z,78.74
2022-11-30T06:42:33.667Z,78.74
2022-11-30T06:45:00.242Z,77.98
2022-11-30T06:47:27.051Z,78.17
2022-11-30T06:49:53.990Z,78.10
2022-11-30T06:52:20.983Z,78.07
2022-11-30T06:54:47.817Z,78.38
2022-11-30T06:57:14.646Z,77.97
2022-11-30T06:59:44.247Z,77.79
2022-11-30T07:02:17.959Z,78.02
2022-11-30T07:04:45.545Z,78.29
2022-11-30T07:07:12.389Z,78.42
2022-11-30T07:09:38.908Z,78.31
2022-11-30T07:12:05.698Z,78.49
2022-11-30T07:14:41.727Z,77.96
2022-11-30T07:17:08.561Z,78.30
2022-11-30T07:19:35.299Z,78.28
2022-11-30T07:22:03.092Z,78.38
2022-11-30T07:24:49.269Z,78.23
2022-11-30T07:27:17.963Z,78.17
2022-11-30T07:29:44.776Z,78.17
2022-11-30T07:32:11.404Z,78.23
2022-11-30T07:34:38.014Z,78.26
2022-11-30T07:37:06.876Z,78.14
2022-11-30T07:39:33.422Z,78.06
2022-11-30T07:41:59.979Z,78.18
2022-11-30T07:44:28.940Z,78.14
2022-11-30T07:46:55.775Z,78.65
2022-11-30T07:49:26.267Z,78.59
2022-11-30T07:51:52.894Z,79.25
2022-11-30T07:54:24.473Z,79.25
2022-11-30T07:57:00.603Z,79.41
2022-11-30T07:59:30.266Z,79.27
2022-11-30T08:01:58.759Z,78.75
2022-11-30T08:04:25.466Z,78.43
2022-11-30T08:06:53.201Z,77.88
2022-11-30T08:09:21.003Z,78.22
2022-11-30T08:11:48.553Z,77.62
2022-11-30T08:14:15.119Z,78.19
2022-11-30T08:16:44.170Z,77.00
2022-11-30T08:19:10.735Z,75.96
2022-11-30T08:21:38.200Z,76.73
2022-11-30T08:24:05.021Z,77.55
2022-11-30T08:26:32.405Z,77.12
2022-11-30T08:28:59.926Z,76.87
2022-11-30T08:31:30.761Z,77.24
2022-11-30T08:33:58.059Z,76.74
2022-11-30T08:36:25.344Z,77.32
2022-11-30T08:38:51.882Z,75.92
2022-11-30T08:41:19.615Z,77.01
2022-11-30T08:43:46.341Z,76.93
2022-11-30T08:49:20.895Z,77.17
2022-11-30T08:52:15.936Z,77.47
2022-11-30T08:54:35.633Z,76.93
2022-11-30T08:57:03.163Z,76.87
2022-11-30T08:59:33.348Z,76.72
2022-11-30T09:01:59.880Z,77.30
2022-11-30T09:04:26.534Z,75.82
2022-11-30T09:06:53.082Z,76.16
2022-11-30T09:09:19.760Z,76.24
2022-11-30T09:11:46.879Z,76.94
2022-11-30T09:14:13.429Z,76.51
2022-11-30T09:16:40.194Z,75.64
2022-11-30T09:19:06.729Z,76.52
2022-11-30T09:21:33.497Z,75.31
2022-11-30T09:24:00.086Z,73.36
2022-11-30T09:26:26.799Z,75.22
2022-11-30T09:28:53.932Z,73.42
2022-11-30T09:31:21.621Z,74.32
2022-11-30T09:33:48.230Z,74.99
2022-11-30T09:36:15.993Z,74.61
2022-11-30T09:38:42.733Z,75.05
2022-11-30T09:41:15.472Z,75.09
2022-11-30T09:43:46.045Z,75.99
2022-11-30T09:46:12.692Z,75.01
2022-11-30T09:48:55.837Z,75.38
2022-11-30T09:51:23.877Z,76.31
2022-11-30T09:53:55.549Z,75.85
2022-11-30T09:56:30.343Z,76.36
2022-11-30T09:59:00.412Z,76.05
2022-11-30T10:01:30.565Z,76.18
2022-11-30T10:04:00.084Z,76.64
2022-11-30T10:06:26.585Z,75.67
2022-11-30T10:09:00.137Z,75.96
2022-11-30T10:11:39.267Z,74.86
2022-11-30T10:14:24.443Z,72.88
2022-11-30T10:17:06.171Z,72.30
2022-11-30T10:19:32.853Z,72.68
2022-11-30T10:22:09.330Z,73.16
2022-11-30T10:24:48.281Z,73.71
2022-11-30T10:27:17.046Z,73.59
2022-11-30T10:29:46.717Z,73.70
2022-11-30T10:32:18.693Z,73.74
2022-11-30T10:34:50.001Z,74.87
2022-11-30T10:37:24.209Z,73.62
2022-11-30T10:39:58.041Z,71.29
2022-11-30T10:42:28.853Z,72.41
2022-11-30T10:45:00.195Z,73.26
2022-11-30T10:47:27.200Z,73.78
2022-11-30T10:49:53.789Z,71.91
2022-11-30T10:52:27.406Z,71.92
2022-11-30T10:54:56.938Z,72.72
2022-11-30T10:57:31.622Z,71.61
2022-11-30T10:59:58.993Z,72.52
2022-11-30T11:02:42.741Z,73.17
2022-11-30T11:05:09.266Z,71.68
2022-11-30T11:07:43.596Z,71.13
2022-11-30T11:10:12.492Z,70.04
2022-11-30T11:12:39.078Z,71.39
2022-11-30T11:15:22.524Z,71.36
2022-11-30T11:17:49.349Z,71.77
2022-11-30T11:20:35.227Z,71.46
2022-11-30T11:23:03.075Z,71.98
2022-11-30T11:25:36.640Z,72.53
2022-11-30T11:28:04.674Z,70.89
2022-11-30T11:30:31.513Z,71.70
2022-11-30T11:32:59.747Z,72.66
2022-11-30T11:35:32.467Z,72.46
2022-11-30T11:37:58.994Z,72.09
2022-11-30T11:40:25.531Z,72.26
2022-11-30T11:42:52.649Z,71.41
2022-11-30T11:45:23.120Z,72.84
2022-11-30T11:47:59.822Z,72.17
2022-11-30T11:51:05.712Z,71.93
2022-11-30T11:53:24.899Z,71.23
2022-11-30T11:55:52.674Z,70.55
2022-11-30T11:58:21.566Z,71.01
2022-11-30T12:00:48.346Z,71.06
2022-11-30T12:03:18.812Z,70.82
2022-11-30T12:05:49.574Z,71.37
2022-11-30T12:08:37.998Z,71.75
2022-11-30T12:11:13.902Z,71.48
2022-11-30T12:13:44.197Z,72.94
2022-11-30T12:16:20.710Z,71.32
2022-11-30T12:19:06.064Z,72.45
2022-11-30T12:21:45.090Z,71.36
2022-11-30T12:24:11.612Z,71.99
2022-11-30T12:26:39.652Z,73.39
2022-11-30T12:29:06.165Z,73.56
2022-11-30T12:31:39.698Z,72.25
2022-11-30T12:34:38.876Z,72.67
2022-11-30T12:37:15.509Z,72.75
2022-11-30T12:40:03.463Z,72.95
2022-11-30T12:42:37.119Z,73.24
2022-11-30T12:45:04.130Z,72.92
2022-11-30T12:47:33.796Z,72.90
2022-11-30T12:50:19.251Z,72.71
2022-11-30T12:53:01.620Z,72.34
2022-11-30T12:55:43.888Z,71.52
2022-11-30T12:58:19.607Z,72.55
2022-11-30T13:00:55.666Z,72.18
2022-11-30T13:03:42.702Z,71.30
2022-11-30T13:06:14.183Z,71.89
2022-11-30T13:08:49.664Z,71.78
2022-11-30T13:11:23.259Z,72.23
2022-11-30T13:13:51.150Z,72.38
2022-11-30T13:16:18.176Z,72.63
2022-11-30T13:18:44.859Z,72.57
2022-11-30T13:21:23.704Z,72.56
2022-11-30T13:24:05.852Z,72.40
2022-11-30T13:26:32.491Z,73.92
2022-11-30T13:28:59.010Z,73.87
2022-11-30T13:31:30.391Z,74.31
2022-11-30T13:33:58.302Z,73.88
2022-11-30T13:36:40.443Z,72.57
2022-11-30T13:39:16.570Z,72.16
2022-11-30T13:41:43.930Z,73.00
2022-11-30T13:44:22.921Z,71.79
2022-11-30T13:46:50.227Z,71.62
2022-11-30T13:49:22.274Z,72.32
2022-11-30T13:52:07.206Z,72.68
2022-11-30T13:54:46.173Z,72.65
2022-11-30T13:57:39.130Z,72.61
2022-11-30T14:00:25.221Z,72.83
2022-11-30T14:02:54.469Z,73.29
2022-11-30T14:05:40.331Z,73.18
2022-11-30T14:08:07.180Z,73.66
2022-11-30T14:10:33.826Z,73.43
2022-11-30T14:13:10.751Z,72.81
2022-11-30T14:15:40.942Z,73.13
2022-11-30T14:18:07.421Z,72.70
2022-11-30T14:20:37.967Z,73.31
2022-11-30T14:23:05.479Z,73.30
2022-11-30T14:25:32.086Z,73.56
2022-11-30T14:27:58.691Z,73.14
2022-11-30T14:30:25.354Z,73.50
2022-11-30T14:32:53.205Z,73.05
2022-11-30T14:35:20.453Z,72.86
2022-11-30T14:37:54.389Z,73.57
2022-11-30T14:40:22.539Z,73.73
2022-11-30T14:42:53.116Z,74.18
2022-11-30T14:45:21.410Z,73.21
2022-11-30T14:47:50.422Z,73.73
2022-11-30T14:50:26.579Z,73.59
2022-11-30T14:53:05.465Z,73.89
2022-11-30T14:55:33.792Z,73.95
2022-11-30T14:58:03.980Z,73.60
2022-11-30T15:00:37.035Z,74.39
2022-11-30T15:03:03.814Z,74.12
2022-11-30T15:05:30.939Z,74.74
2022-11-30T15:07:57.600Z,74.64
2022-11-30T15:10:29.449Z,74.72
2022-11-30T15:12:56.596Z,74.68
2022-11-30T15:15:24.531Z,74.65
2022-11-30T15:17:55.284Z,74.79
2022-11-30T15:20:30.935Z,75.00
2022-11-30T15:22:58.239Z,74.68
2022-11-30T15:25:26.393Z,74.55
2022-11-30T15:27:52.948Z,74.55
2022-11-30T15:30:19.676Z,74.92
2022-11-30T15:32:47.072Z,75.00
2022-11-30T15:35:20.732Z,74.89
2022-11-30T15:37:47.255Z,74.76
2022-11-30T15:40:14.919Z,74.97
2022-11-30T15:42:41.507Z,74.63
2022-11-30T15:45:11.092Z,75.46
2022-11-30T15:47:38.203Z,75.34
2022-11-30T15:50:30.705Z,74.95
2022-11-30T15:52:58.097Z,74.94
2022-11-30T15:55:44.329Z,74.69
2022-11-30T15:58:27.666Z,74.82
2022-11-30T16:01:00.338Z,74.61
2022-11-30T16:03:27.004Z,74.72
2022-11-30T16:05:55.214Z,74.85
2022-11-30T16:08:21.781Z,75.09
2022-11-30T16:10:48.422Z,75.07
2022-11-30T16:13:15.919Z,75.15
2022-11-30T16:15:51.888Z,75.37
2022-11-30T16:18:20.875Z,74.69
2022-11-30T16:20:49.428Z,75.24
2022-11-30T16:23:16.316Z,75.00
2022-11-30T16:25:43.710Z,74.91
2022-11-30T16:28:10.663Z,75.21
2022-11-30T16:30:37.275Z,75.15
2022-11-30T16:33:03.897Z,74.85
2022-11-30T16:35:37.281Z,75.05
2022-11-30T16:38:03.872Z,75.36
2022-11-30T16:40:34.011Z,75.02
2022-11-30T16:43:04.948Z,75.20
2022-11-30T16:45:37.696Z,75.08
2022-11-30T16:48:04.644Z,75.24
2022-11-30T16:50:34.854Z,74.78
2022-11-30T16:53:01.955Z,74.60
2022-11-30T16:55:29.796Z,74.99
2022-11-30T16:57:56.488Z,75.28
2022-11-30T17:00:23.335Z,75.24
2022-11-30T17:03:11.337Z,75.36
2022-11-30T17:05:38.107Z,75.46
2022-11-30T17:08:04.770Z,75.10
2022-11-30T17:10:31.698Z,75.38
2022-11-30T17:12:58.239Z,75.13
2022-11-30T17:15:25.036Z,75.65
2022-11-30T17:17:52.188Z,74.41
2022-11-30T17:20:18.739Z,74.95
2022-11-30T17:22:45.741Z,74.83
2022-11-30T17:25:16.470Z,74.61
2022-11-30T17:27:43.166Z,74.90
2022-11-30T17:30:10.245Z,74.63
2022-11-30T17:32:36.945Z,74.67
2022-11-30T17:35:03.793Z,73.63
2022-11-30T17:37:30.367Z,73.79
2022-11-30T17:39:57.457Z,73.74
2022-11-30T17:42:24.119Z,74.61
2022-11-30T17:44:51.289Z,74.42
2022-11-30T17:47:17.991Z,74.42
2022-11-30T17:49:44.619Z,73.98
2022-11-30T17:52:11.231Z,74.92
2022-11-30T17:54:37.761Z,74.49
2022-11-30T17:57:04.577Z,73.84
2022-11-30T17:59:32.135Z,74.16
2022-11-30T18:01:58.797Z,73.95
2022-11-30T18:04:25.337Z,74.19
2022-11-30T18:06:52.480Z,74.71
2022-11-30T18:09:19.079Z,74.45
2022-11-30T18:11:45.687Z,74.28
2022-11-30T18:14:12.253Z,73.88
2022-11-30T18:16:39.002Z,73.45
2022-11-30T18:19:12.089Z,73.08
2022-11-30T18:21:40.072Z,74.08
2022-11-30T18:24:06.833Z,74.49
2022-11-30T18:26:35.589Z,74.25
2022-11-30T18:29:02.326Z,73.96
2022-11-30T18:31:29.744Z,72.95
2022-11-30T18:34:00.582Z,73.23
2022-11-30T18:36:27.499Z,73.02
2022-11-30T18:38:54.115Z,73.91
2022-11-30T18:41:20.685Z,73.71
2022-11-30T18:43:47.230Z,73.42
2022-11-30T18:46:13.963Z,73.20
2022-11-30T18:48:41.050Z,73.71
2022-11-30T18:51:15.071Z,73.81
2022-11-30T18:53:41.679Z,74.29
2022-11-30T18:56:20.616Z,75.05
2022-11-30T18:58:47.474Z,73.85
2022-11-30T19:01:14.211Z,74.39
2022-11-30T19:03:41.032Z,74.17
2022-11-30T19:06:08.230Z,73.87
2022-11-30T19:08:35.085Z,73.97
2022-11-30T19:11:05.232Z,73.93
2022-11-30T19:13:32.835Z,74.12
2022-11-30T19:16:03.115Z,74.40
2022-11-30T19:18:29.821Z,73.56
2022-11-30T19:20:56.360Z,74.55
2022-11-30T19:23:23.887Z,74.54
2022-11-30T19:25:50.495Z,74.38
2022-11-30T19:28:17.384Z,74.13
2022-11-30T19:30:44.012Z,74.41
2022-11-30T19:33:10.754Z,74.02
2022-11-30T19:35:38.574Z,74.02
2022-11-30T19:38:05.103Z,73.86
2022-11-30T19:40:31.928Z,73.72
2022-11-30T19:42:59.518Z,73.66
2022-11-30T19:45:26.062Z,72.84
2022-11-30T19:47:52.644Z,73.21
2022-11-30T19:50:19.298Z,73.58
2022-11-30T19:52:48.463Z,73.27
2022-11-30T19:55:15.760Z,74.45
2022-11-30T19:57:42.348Z,73.49
2022-11-30T20:00:09.383Z,73.92
2022-11-30T20:02:42.255Z,73.75
2022-11-30T20:05:09.145Z,74.17
2022-11-30T20:07:36.539Z,73.01
2022-11-30T20:10:03.306Z,72.96
2022-11-30T20:12:29.963Z,73.08
2022-11-30T20:14:56.530Z,72.86
2022-11-30T20:17:24.727Z,72.73
2022-11-30T20:19:51.387Z,72.95
2022-11-30T20:22:18.012Z,72.62
2022-11-30T20:24:44.579Z,72.50
2022-11-30T20:27:11.185Z,72.33
2022-11-30T20:29:37.794Z,72.54
2022-11-30T20:32:04.473Z,72.65
2022-11-30T20:34:34.647Z,72.64
2022-11-30T20:37:02.465Z,72.91
2022-11-30T20:39:29.164Z,72.92
2022-11-30T20:41:55.700Z,72.43
2022-11-30T20:44:22.260Z,72.54
2022-11-30T20:46:49.060Z,71.60
2022-11-30T20:49:17.995Z,72.39
2022-11-30T20:51:44.982Z,72.24
2022-11-30T20:54:12.109Z,72.37
2022-11-30T20:56:38.797Z,72.33
2022-11-30T20:59:09.667Z,71.63
2022-11-30T21:01:36.292Z,71.32
2022-11-30T21:04:02.921Z,71.08
2022-11-30T21:06:29.901Z,71.68
2022-11-30T21:08:56.531Z,71.04
2022-11-30T21:11:23.455Z,70.93
2022-11-30T21:13:50.579Z,71.49
2022-11-30T21:16:22.530Z,71.91
2022-11-30T21:18:52.387Z,71.90
2022-11-30T21:21:20.363Z,71.50
2022-11-30T21:23:47.707Z,71.36
2022-11-30T21:26:14.727Z,71.27
2022-11-30T21:28:41.305Z,71.14
2022-11-30T21:31:07.946Z,70.56
2022-11-30T21:33:34.538Z,70.87
2022-11-30T21:36:04.342Z,71.13
2022-11-30T21:38:31.019Z,71.07
2022-11-30T21:40:59.091Z,70.60
2022-11-30T21:43:26.589Z,71.26
2022-11-30T21:45:59.755Z,71.06
2022-11-30T21:48:28.047Z,71.11
2022-11-30T21:50:59.072Z,70.58
2022-11-30T21:53:26.071Z,71.58
2022-11-30T21:55:55.737Z,71.17
2022-11-30T21:58:22.679Z,70.00
2022-11-30T22:00:56.021Z,71.37
2022-11-30T22:03:22.856Z,70.06
2022-11-30T22:06:15.729Z,70.42
2022-11-30T22:08:42.255Z,70.45
2022-11-30T22:11:09.530Z,71.24
2022-11-30T22:13:36.558Z,71.27
2022-11-30T22:16:04.354Z,70.27
2022-11-30T22:18:31.334Z,70.12
2022-11-30T22:21:03.077Z,69.91
2022-11-30T22:23:29.642Z,70.39
2022-11-30T22:26:06.847Z,70.39
2022-11-30T22:28:33.415Z,71.24
2022-11-30T22:31:03.917Z,70.50
2022-11-30T22:33:31.883Z,70.18
2022-11-30T22:35:58.451Z,70.10
2022-11-30T22:38:25.489Z,70.93
2022-11-30T22:40:52.270Z,71.13
2022-11-30T22:43:18.869Z,71.23
2022-11-30T22:45:45.421Z,71.58
2022-11-30T22:48:12.137Z,72.32
2022-11-30T22:50:38.738Z,71.12
2022-11-30T22:53:05.387Z,71.41
2022-11-30T22:55:32.087Z,71.41
2022-11-30T22:57:58.715Z,71.56
2022-11-30T23:00:25.233Z,71.69
2022-11-30T23:02:51.872Z,71.56
2022-11-30T23:05:18.524Z,71.49
2022-11-30T23:07:45.166Z,71.22
2022-11-30T23:10:11.976Z,70.91
2022-11-30T23:12:58.361Z,71.96
2022-11-30T23:15:25.035Z,71.51
2022-11-30T23:17:51.680Z,71.66
2022-11-30T23:20:18.215Z,71.76
2022-11-30T23:22:44.814Z,72.31
2022-11-30T23:25:11.379Z,72.09
2022-11-30T23:27:37.943Z,71.74
2022-11-30T23:30:04.961Z,72.27
2022-11-30T23:32:31.674Z,71.39
2022-11-30T23:34:58.265Z,71.76
2022-11-30T23:37:24.805Z,71.04
2022-11-30T23:39:51.307Z,71.45
2022-11-30T23:42:17.814Z,71.59
2022-11-30T23:44:44.766Z,71.47
2022-11-30T23:47:15.400Z,72.34
2022-11-30T23:49:44.622Z,71.30
2022-11-30T23:52:11.224Z,71.59
2022-11-30T23:54:37.803Z,72.06
2022-11-30T23:57:04.805Z,71.26
2022-11-30T23:59:31.388Z,72.17
